Deer Valley, Utah
Current Conditions -  °F | °C
As of 1:55 PM on Tuesday 21 Oct 2014 (Local Time) from K36U Reporting Station
Broken Clouds Broken Clouds  
Wind Chill: 61°   Ceiling: 9500
Heat Index: 61°   Visibility: 10mi
Dew Point: 37°   Wind: 9mph
Humidity: 42%   Direction: 260°W
Pressure: 29.96"   Gusts: NA
Location:  40.6558°N, 111.503°W
Report Text: K36U 211955Z AUTO 26008KT 10SM SCT070 BKN095 BKN120 16/03 A2996 RMK AO2 LTG DSNT E
Loading
Personal Weather Stations






























Interactive Weather Map
Tropical Storm Tracking
New forecast layout! Learn more

10-Day Weather Forecast

Advertisements
Track Severe Weather on mobile